EGPD/ABZ METAR and TAF weather

Enter ICAO airport designator
Station Type Date Time Source
EGPD METAR 2019/08/19 01:20 UTC NOAA

EGPD 190120Z AUTO 24007KT 9999 NCD 12/08 Q0997 NOSIG


Station Type Date Time Source
EGPD Decoded METAR 2019/08/19 01:20 UTC NOAA

Station name not available
Aug 18, 2019 - 09:20 PM EDT / 2019.08.19 0120 UTC
Wind: from the WSW (240 degrees) at 8 MPH (7 KT):0
Visibility: greater than 7 mile(s):0
Temperature: 53 F (12 C)
Dew Point: 46 F (8 C)
Relative Humidity: 76%
Pressure (altimeter): 29.44 in. Hg (0997 hPa)
ob: EGPD 190120Z AUTO 24007KT 9999 NCD 12/08 Q0997 NOSIG
cycle: 1

Station Type Date Time Source
EGPD TAF 2019/08/18 18:09 UTC NOAA

TAF EGPD 181658Z 1818/1918 24009KT 9999 SCT035CB PROB40
TEMPO 1818/1820 23015G25KT 6000 SHRA PROB30
TEMPO 1910/1912 7000 SHRA

Example: see airport list